createdAt,value
2018-07-08T00:01:34.498Z,3.10
2018-07-08T00:04:03.617Z,3.47
2018-07-08T00:06:33.207Z,2.77
2018-07-08T00:09:02.359Z,2.50
2018-07-08T00:11:31.623Z,2.70
2018-07-08T00:14:00.757Z,3.93
2018-07-08T00:16:29.961Z,3.23
2018-07-08T00:18:59.114Z,2.47
2018-07-08T00:21:28.346Z,2.87
2018-07-08T00:23:57.564Z,3.07
2018-07-08T00:26:26.744Z,2.90
2018-07-08T00:28:55.896Z,2.40
2018-07-08T00:31:25.055Z,3.80
2018-07-08T00:33:54.244Z,2.93
2018-07-08T00:36:23.397Z,2.70
2018-07-08T00:38:52.539Z,3.10
2018-07-08T00:41:21.695Z,2.63
2018-07-08T00:43:50.898Z,2.80
2018-07-08T00:46:20.131Z,3.20
2018-07-08T00:48:49.343Z,3.30
2018-07-08T00:51:18.444Z,2.90
2018-07-08T00:53:47.595Z,2.63
2018-07-08T00:56:16.732Z,2.70
2018-07-08T00:58:45.927Z,2.90
2018-07-08T01:01:15.134Z,4.40
2018-07-08T01:03:44.231Z,2.57
2018-07-08T01:06:13.409Z,2.90
2018-07-08T01:08:42.557Z,2.87
2018-07-08T01:11:11.747Z,3.47
2018-07-08T01:13:40.985Z,2.67
2018-07-08T01:16:10.190Z,3.50
2018-07-08T01:18:39.440Z,3.27
2018-07-08T01:21:08.600Z,3.20
2018-07-08T01:23:37.760Z,2.97
2018-07-08T01:26:10.101Z,2.93
2018-07-08T01:28:39.892Z,2.70
2018-07-08T01:31:09.594Z,3.47
2018-07-08T01:33:38.978Z,3.07
2018-07-08T01:36:08.590Z,3.00
2018-07-08T01:38:37.702Z,2.60
2018-07-08T01:41:07.131Z,2.97
2018-07-08T01:43:36.335Z,3.20
2018-07-08T01:46:05.923Z,2.40
2018-07-08T01:48:35.202Z,3.00
2018-07-08T01:51:04.373Z,2.77
2018-07-08T01:53:33.577Z,3.40
2018-07-08T01:56:02.769Z,2.80
2018-07-08T01:58:31.899Z,2.67
2018-07-08T02:01:01.020Z,2.63
2018-07-08T02:03:30.201Z,3.13
2018-07-08T02:05:59.360Z,3.10
2018-07-08T02:08:28.483Z,2.70
2018-07-08T02:10:57.668Z,3.63
2018-07-08T02:13:26.822Z,2.70
2018-07-08T02:15:55.974Z,3.57
2018-07-08T02:18:25.135Z,3.77
2018-07-08T02:20:54.301Z,3.10
2018-07-08T02:23:23.565Z,2.63
2018-07-08T02:25:52.699Z,2.87
2018-07-08T02:28:21.945Z,3.13
2018-07-08T02:30:51.215Z,3.17
2018-07-08T02:33:20.352Z,3.20
2018-07-08T02:35:50.155Z,3.23
2018-07-08T02:38:19.407Z,2.87
2018-07-08T02:40:48.505Z,2.73
2018-07-08T02:43:17.699Z,3.33
2018-07-08T02:45:46.900Z,2.73
2018-07-08T02:48:16.090Z,4.17
2018-07-08T02:50:45.302Z,3.40
2018-07-08T02:53:14.512Z,2.90
2018-07-08T02:55:43.697Z,2.80
2018-07-08T02:58:12.876Z,3.70
2018-07-08T03:00:42.036Z,2.80
2018-07-08T03:03:11.166Z,3.37
2018-07-08T03:05:40.347Z,3.07
2018-07-08T03:08:09.489Z,3.27
2018-07-08T03:10:38.657Z,3.57
2018-07-08T03:13:07.815Z,3.80
2018-07-08T03:15:36.939Z,3.50
2018-07-08T03:18:06.293Z,4.47
2018-07-08T03:20:35.420Z,3.10
2018-07-08T03:23:04.618Z,3.77
2018-07-08T03:25:33.820Z,2.70
2018-07-08T03:28:02.972Z,3.90
2018-07-08T03:30:32.149Z,3.27
2018-07-08T03:33:01.296Z,3.50
2018-07-08T03:35:30.384Z,4.03
2018-07-08T03:37:59.582Z,3.60
2018-07-08T03:40:28.738Z,2.90
2018-07-08T03:42:57.961Z,3.77
2018-07-08T03:45:27.154Z,3.50
2018-07-08T03:47:56.306Z,3.63
2018-07-08T03:50:25.448Z,3.63
2018-07-08T03:52:54.571Z,3.13
2018-07-08T03:55:23.734Z,3.57
2018-07-08T03:57:52.921Z,3.30
2018-07-08T04:00:22.109Z,3.03
2018-07-08T04:02:51.288Z,2.70
2018-07-08T04:05:20.441Z,3.63
2018-07-08T04:07:49.652Z,2.90
2018-07-08T04:10:18.812Z,3.27
2018-07-08T04:12:47.940Z,3.30
2018-07-08T04:15:17.186Z,3.10
2018-07-08T04:17:46.318Z,3.30
2018-07-08T04:20:15.471Z,2.90
2018-07-08T04:22:44.594Z,4.17
2018-07-08T04:25:13.737Z,3.77
2018-07-08T04:27:42.902Z,3.20
2018-07-08T04:30:12.010Z,3.87
2018-07-08T04:32:41.211Z,3.03
2018-07-08T04:35:10.391Z,4.07
2018-07-08T04:37:39.525Z,3.30
2018-07-08T04:40:08.639Z,3.10
2018-07-08T04:42:37.861Z,3.50
2018-07-08T04:45:07.062Z,3.33
2018-07-08T04:47:36.226Z,3.00
2018-07-08T04:50:05.400Z,3.63
2018-07-08T04:52:34.541Z,3.57
2018-07-08T04:55:03.713Z,3.27
2018-07-08T04:57:33.019Z,2.87
2018-07-08T05:00:02.414Z,4.03
2018-07-08T05:02:31.567Z,4.20
2018-07-08T05:05:00.899Z,3.50
2018-07-08T05:07:30.130Z,3.37
2018-07-08T05:09:59.338Z,3.50
2018-07-08T05:12:28.470Z,3.30
2018-07-08T05:14:57.837Z,4.33
2018-07-08T05:17:26.928Z,4.30
2018-07-08T05:19:56.246Z,3.60
2018-07-08T05:22:25.466Z,3.70
2018-07-08T05:24:54.782Z,3.23
2018-07-08T05:27:24.038Z,3.70
2018-07-08T05:29:53.269Z,3.10
2018-07-08T05:32:22.418Z,3.20
2018-07-08T05:34:51.633Z,3.00
2018-07-08T05:37:20.797Z,3.83
2018-07-08T05:39:49.927Z,3.67
2018-07-08T05:42:19.147Z,4.03
2018-07-08T05:44:48.358Z,3.67
2018-07-08T05:47:17.484Z,4.13
2018-07-08T05:49:47.498Z,4.40
2018-07-08T05:52:16.575Z,3.60
2018-07-08T05:54:45.745Z,4.37
2018-07-08T05:57:14.921Z,4.40
2018-07-08T05:59:44.154Z,4.37
2018-07-08T06:02:13.936Z,4.30
2018-07-08T06:04:43.055Z,4.70
2018-07-08T06:07:12.222Z,4.43
2018-07-08T06:09:41.410Z,3.60
2018-07-08T06:12:10.545Z,5.13
2018-07-08T06:14:39.738Z,4.20
2018-07-08T06:17:08.902Z,4.80
2018-07-08T06:19:38.101Z,5.00
2018-07-08T06:22:07.662Z,4.20
2018-07-08T06:24:37.139Z,5.10
2018-07-08T06:27:06.324Z,4.20
2018-07-08T06:29:35.558Z,6.20
2018-07-08T06:32:05.243Z,4.20
2018-07-08T06:34:34.778Z,4.93
2018-07-08T06:37:04.115Z,4.70
2018-07-08T06:39:33.304Z,4.90
2018-07-08T06:42:02.431Z,5.23
2018-07-08T06:44:31.654Z,5.20
2018-07-08T06:47:00.809Z,5.07
2018-07-08T06:49:30.048Z,5.57
2018-07-08T06:51:59.229Z,5.40
2018-07-08T06:54:28.362Z,4.67
2018-07-08T06:56:58.424Z,5.00
2018-07-08T06:59:27.936Z,5.93
2018-07-08T07:01:57.102Z,5.10
2018-07-08T07:04:26.249Z,4.77
2018-07-08T07:06:55.383Z,6.70
2018-07-08T07:09:24.517Z,5.83
2018-07-08T07:11:53.663Z,6.83
2018-07-08T07:14:22.825Z,5.53
2018-07-08T07:16:51.978Z,4.80
2018-07-08T07:19:21.083Z,6.17
2018-07-08T07:21:50.212Z,5.77
2018-07-08T07:24:19.336Z,6.87
2018-07-08T07:26:48.505Z,5.77
2018-07-08T07:29:17.650Z,5.77
2018-07-08T07:31:46.873Z,6.63
2018-07-08T07:34:16.030Z,6.00
2018-07-08T07:36:45.166Z,5.67
2018-07-08T07:39:14.334Z,6.00
2018-07-08T07:41:43.547Z,6.00
2018-07-08T07:44:12.625Z,5.20
2018-07-08T07:46:41.755Z,6.00
2018-07-08T07:49:10.907Z,5.93
2018-07-08T07:51:40.045Z,7.57
2018-07-08T07:54:09.446Z,6.27
2018-07-08T07:56:38.609Z,6.20
2018-07-08T07:59:07.873Z,6.70
2018-07-08T08:01:36.993Z,6.73
2018-07-08T08:04:06.200Z,7.30
2018-07-08T08:06:36.535Z,7.00
2018-07-08T08:09:06.895Z,7.50
2018-07-08T08:11:36.045Z,7.20
2018-07-08T08:14:06.667Z,6.57
2018-07-08T08:16:36.320Z,6.30
2018-07-08T08:19:05.559Z,7.03
2018-07-08T08:21:36.030Z,6.07
2018-07-08T08:24:05.239Z,6.30
2018-07-08T08:26:34.472Z,7.93
2018-07-08T08:29:03.669Z,6.23
2018-07-08T08:31:35.014Z,6.80
2018-07-08T08:35:11.717Z,6.67
2018-07-08T08:37:43.961Z,7.03
2018-07-08T08:40:13.878Z,6.77
2018-07-08T08:42:43.048Z,6.70
2018-07-08T08:45:13.929Z,8.03
2018-07-08T08:47:43.082Z,7.30
2018-07-08T08:50:12.843Z,6.13
2018-07-08T08:52:42.189Z,6.87
2018-07-08T08:55:12.336Z,8.00
2018-07-08T08:57:41.537Z,7.47
2018-07-08T09:00:12.745Z,7.20
2018-07-08T09:02:41.979Z,6.70
2018-07-08T09:05:11.286Z,6.80
2018-07-08T09:07:40.547Z,6.50
2018-07-08T09:10:09.734Z,6.97
2018-07-08T09:12:38.879Z,7.30
2018-07-08T09:15:08.043Z,7.63
2018-07-08T09:17:37.142Z,7.83
2018-07-08T09:20:06.616Z,7.17
2018-07-08T09:22:35.794Z,8.83
2018-07-08T09:25:05.755Z,8.23
2018-07-08T09:27:34.957Z,7.03
2018-07-08T09:30:04.409Z,8.23
2018-07-08T09:32:33.555Z,7.67
2018-07-08T09:35:02.721Z,7.60
2018-07-08T09:37:31.888Z,7.67
2018-07-08T09:40:01.082Z,7.07
2018-07-08T09:42:30.246Z,7.93
2018-07-08T09:44:59.404Z,6.73
2018-07-08T09:47:28.515Z,7.33
2018-07-08T09:49:57.689Z,6.47
2018-07-08T09:52:26.868Z,7.10
2018-07-08T09:54:56.006Z,7.10
2018-07-08T09:57:25.097Z,7.50
2018-07-08T09:59:54.306Z,7.10
2018-07-08T10:02:23.482Z,8.70
2018-07-08T10:04:52.743Z,6.80
2018-07-08T10:07:21.915Z,7.10
2018-07-08T10:09:51.078Z,8.03
2018-07-08T10:12:20.217Z,9.20
2018-07-08T10:14:49.412Z,7.07
2018-07-08T10:17:18.622Z,9.20
2018-07-08T10:19:47.923Z,6.80
2018-07-08T10:22:17.078Z,7.10
2018-07-08T10:24:46.242Z,6.50
2018-07-08T10:28:22.137Z,7.00
2018-07-08T10:30:51.675Z,6.60
2018-07-08T10:33:20.765Z,7.60
2018-07-08T10:36:00.042Z,7.10
2018-07-08T10:38:29.240Z,6.50
2018-07-08T10:40:58.441Z,7.13
2018-07-08T10:43:27.735Z,7.17
2018-07-08T10:45:56.842Z,7.60
2018-07-08T10:48:25.993Z,7.10
2018-07-08T10:50:55.158Z,6.80
2018-07-08T10:53:24.332Z,7.70
2018-07-08T10:55:53.590Z,7.47
2018-07-08T10:58:22.771Z,7.37
2018-07-08T11:00:51.944Z,7.70
2018-07-08T11:03:22.148Z,6.80
2018-07-08T11:05:51.370Z,7.37
2018-07-08T11:08:20.549Z,7.47
2018-07-08T11:10:49.792Z,7.90
2018-07-08T11:13:18.906Z,7.50
2018-07-08T11:15:48.035Z,7.07
2018-07-08T11:18:17.284Z,7.23
2018-07-08T11:20:48.281Z,7.57
2018-07-08T11:23:17.430Z,7.10
2018-07-08T11:25:46.593Z,7.03
2018-07-08T11:28:15.705Z,8.07
2018-07-08T11:30:44.859Z,7.80
2018-07-08T11:33:14.054Z,7.50
2018-07-08T11:35:43.209Z,6.97
2018-07-08T11:38:12.340Z,8.97
2018-07-08T11:40:41.461Z,7.93
2018-07-08T11:43:10.650Z,7.20
2018-07-08T11:45:39.902Z,7.40
2018-07-08T11:48:09.054Z,7.47
2018-07-08T11:50:38.169Z,7.17
2018-07-08T11:53:07.308Z,7.30
2018-07-08T11:55:36.437Z,7.77
2018-07-08T11:58:05.587Z,7.87
2018-07-08T12:00:34.835Z,8.47
2018-07-08T12:03:04.025Z,8.50
2018-07-08T12:05:33.165Z,7.13
2018-07-08T12:08:02.387Z,7.20
2018-07-08T12:10:31.627Z,8.10
2018-07-08T12:13:00.822Z,7.40
2018-07-08T12:15:30.228Z,7.30
2018-07-08T12:17:59.414Z,7.70
2018-07-08T12:20:28.528Z,7.80
2018-07-08T12:22:57.690Z,6.90
2018-07-08T12:25:26.893Z,7.83
2018-07-08T12:27:56.018Z,6.97
2018-07-08T12:30:25.185Z,6.80
2018-07-08T12:32:54.481Z,6.63
2018-07-08T12:35:23.775Z,6.47
2018-07-08T12:37:53.041Z,6.17
2018-07-08T12:40:22.138Z,7.53
2018-07-08T12:42:51.417Z,7.60
2018-07-08T12:45:20.556Z,6.30
2018-07-08T12:47:49.806Z,6.00
2018-07-08T12:50:18.936Z,6.07
2018-07-08T12:52:48.047Z,6.03
2018-07-08T12:55:17.136Z,5.87
2018-07-08T12:57:46.281Z,4.50
2018-07-08T13:00:15.363Z,4.63
2018-07-08T13:02:44.653Z,5.40
2018-07-08T13:05:13.982Z,4.50
2018-07-08T13:07:43.288Z,4.30
2018-07-08T13:10:12.594Z,4.30
2018-07-08T13:12:41.864Z,4.90
2018-07-08T13:15:13.304Z,5.50
2018-07-08T13:17:42.827Z,4.50
2018-07-08T13:20:12.100Z,4.40
2018-07-08T13:22:41.270Z,4.43
2018-07-08T13:25:10.525Z,4.37
2018-07-08T13:27:39.818Z,4.00
2018-07-08T13:30:09.098Z,3.60
2018-07-08T13:32:38.311Z,4.10
2018-07-08T13:35:07.378Z,3.97
2018-07-08T13:37:36.564Z,3.40
2018-07-08T13:40:06.078Z,3.60
2018-07-08T13:42:35.511Z,3.63
2018-07-08T13:45:04.660Z,2.90
2018-07-08T13:47:33.937Z,3.60
2018-07-08T13:50:03.201Z,3.20
2018-07-08T13:52:32.325Z,3.70
2018-07-08T13:55:01.497Z,3.30
2018-07-08T13:57:30.652Z,4.03
2018-07-08T13:59:59.731Z,4.10
2018-07-08T14:02:28.848Z,4.23
2018-07-08T14:04:58.021Z,4.10
2018-07-08T14:07:27.164Z,5.40
2018-07-08T14:09:56.541Z,5.00
2018-07-08T14:12:25.708Z,4.73
2018-07-08T14:14:54.994Z,4.77
2018-07-08T14:17:24.198Z,4.40
2018-07-08T14:19:53.672Z,4.20
2018-07-08T14:22:22.882Z,4.10
2018-07-08T14:24:52.098Z,4.77
2018-07-08T14:27:21.193Z,4.23
2018-07-08T14:29:50.339Z,3.70
2018-07-08T14:32:19.505Z,3.70
2018-07-08T14:34:48.774Z,3.60
2018-07-08T14:37:17.927Z,3.20
2018-07-08T14:39:47.011Z,3.20
2018-07-08T14:42:16.221Z,3.10
2018-07-08T14:44:45.457Z,3.77
2018-07-08T14:47:14.499Z,3.33
2018-07-08T14:49:43.669Z,3.50
2018-07-08T14:52:12.753Z,3.43
2018-07-08T14:54:41.937Z,3.80
2018-07-08T14:57:11.092Z,3.23
2018-07-08T14:59:40.258Z,3.40
2018-07-08T15:02:09.461Z,2.93
2018-07-08T15:04:38.856Z,3.80
2018-07-08T15:07:07.977Z,3.60
2018-07-08T15:09:37.167Z,3.20
2018-07-08T15:12:06.455Z,3.40
2018-07-08T15:14:35.646Z,3.30
2018-07-08T15:17:04.798Z,3.73
2018-07-08T15:19:33.925Z,3.73
2018-07-08T15:22:03.105Z,3.40
2018-07-08T15:24:32.295Z,2.87
2018-07-08T15:27:01.514Z,2.97
2018-07-08T15:29:30.675Z,3.57
2018-07-08T15:31:59.749Z,3.30
2018-07-08T15:34:29.094Z,3.20
2018-07-08T15:36:58.127Z,3.30
2018-07-08T15:39:27.457Z,3.63
2018-07-08T15:41:56.616Z,4.07
2018-07-08T15:44:25.843Z,3.67
2018-07-08T15:46:55.098Z,4.00
2018-07-08T15:49:24.291Z,4.27
2018-07-08T15:51:53.408Z,3.83
2018-07-08T15:54:22.949Z,4.50
2018-07-08T15:56:52.158Z,4.93
2018-07-08T15:59:21.383Z,4.90
2018-07-08T16:01:50.629Z,5.43
2018-07-08T16:04:19.737Z,4.90
2018-07-08T16:06:48.854Z,4.30
2018-07-08T16:09:18.054Z,4.30
2018-07-08T16:11:47.229Z,4.97
2018-07-08T16:14:16.381Z,4.43
2018-07-08T16:16:45.554Z,5.13
2018-07-08T16:19:14.721Z,4.37
2018-07-08T16:21:43.852Z,4.00
2018-07-08T16:24:13.011Z,4.00
2018-07-08T16:26:42.206Z,4.20
2018-07-08T16:29:11.410Z,3.63
2018-07-08T16:31:40.513Z,3.60
2018-07-08T16:34:09.697Z,4.20
2018-07-08T16:36:39.105Z,4.00
2018-07-08T16:39:08.330Z,3.97
2018-07-08T16:41:37.525Z,5.07
2018-07-08T16:44:06.697Z,4.70
2018-07-08T16:46:35.781Z,4.40
2018-07-08T16:49:04.929Z,5.03
2018-07-08T16:51:34.146Z,5.40
2018-07-08T16:54:03.303Z,6.17
2018-07-08T16:56:32.525Z,5.50
2018-07-08T16:59:01.630Z,4.63
2018-07-08T17:01:30.817Z,5.13
2018-07-08T17:04:00.009Z,5.20
2018-07-08T17:06:29.169Z,4.63
2018-07-08T17:08:58.385Z,4.73
2018-07-08T17:11:28.007Z,5.13
2018-07-08T17:13:57.349Z,3.60
2018-07-08T17:16:26.477Z,4.73
2018-07-08T17:18:55.687Z,4.40
2018-07-08T17:21:24.823Z,4.17
2018-07-08T17:23:54.030Z,4.80
2018-07-08T17:26:23.204Z,4.27
2018-07-08T17:28:52.692Z,4.30
2018-07-08T17:31:21.909Z,4.37
2018-07-08T17:33:51.168Z,4.33
2018-07-08T17:36:20.319Z,5.27
2018-07-08T17:38:49.452Z,4.70
2018-07-08T17:41:18.867Z,4.63
2018-07-08T17:43:48.279Z,4.93
2018-07-08T17:46:17.478Z,4.13
2018-07-08T17:48:46.752Z,4.20
2018-07-08T17:51:16.037Z,3.90
2018-07-08T17:53:45.329Z,3.90
2018-07-08T17:56:15.415Z,4.33
2018-07-08T17:58:44.750Z,4.00
2018-07-08T18:01:13.928Z,3.93
2018-07-08T18:03:43.146Z,4.00
2018-07-08T18:06:12.309Z,3.87
2018-07-08T18:08:42.111Z,4.30
2018-07-08T18:11:11.398Z,4.30
2018-07-08T18:13:40.627Z,3.93
2018-07-08T18:16:11.243Z,4.13
2018-07-08T18:18:40.482Z,4.77
2018-07-08T18:21:09.766Z,4.50
2018-07-08T18:23:38.907Z,4.00
2018-07-08T18:26:08.132Z,3.90
2018-07-08T18:28:37.399Z,4.03
2018-07-08T18:31:06.597Z,4.70
2018-07-08T18:33:35.889Z,4.77
2018-07-08T18:36:05.095Z,4.30
2018-07-08T18:38:34.299Z,4.47
2018-07-08T18:41:05.510Z,4.87
2018-07-08T18:43:34.638Z,3.57
2018-07-08T18:46:04.111Z,4.90
2018-07-08T18:48:33.448Z,3.80
2018-07-08T18:51:02.712Z,4.20
2018-07-08T18:53:32.009Z,4.10
2018-07-08T18:56:01.141Z,3.73
2018-07-08T18:58:30.371Z,4.00
2018-07-08T19:00:59.591Z,3.90
2018-07-08T19:03:28.734Z,4.13
2018-07-08T19:05:57.841Z,4.13
2018-07-08T19:08:26.981Z,4.03
2018-07-08T19:10:56.265Z,3.57
2018-07-08T19:13:25.403Z,4.10
2018-07-08T19:15:54.499Z,5.07
2018-07-08T19:18:23.616Z,4.90
2018-07-08T19:20:52.817Z,4.70
2018-07-08T19:23:23.462Z,4.97
2018-07-08T19:25:52.592Z,5.33
2018-07-08T19:28:21.848Z,4.20
2018-07-08T19:30:50.953Z,5.10
2018-07-08T19:33:20.164Z,4.90
2018-07-08T19:35:49.501Z,4.60
2018-07-08T19:38:18.806Z,4.00
2018-07-08T19:40:48.174Z,4.30
2018-07-08T19:43:17.376Z,5.07
2018-07-08T19:45:46.639Z,4.30
2018-07-08T19:48:15.485Z,5.37
2018-07-08T19:50:44.652Z,6.27
2018-07-08T19:53:13.833Z,11.20
2018-07-08T19:55:43.024Z,6.63
2018-07-08T19:58:12.776Z,5.77
2018-07-08T20:00:41.882Z,5.70
2018-07-08T20:03:11.006Z,4.80
2018-07-08T20:05:40.244Z,4.43
2018-07-08T20:08:09.513Z,5.20
2018-07-08T20:10:38.665Z,5.20
2018-07-08T20:13:07.825Z,4.93
2018-07-08T20:15:37.019Z,8.53
2018-07-08T20:18:06.198Z,6.70
2018-07-08T20:20:35.274Z,5.80
2018-07-08T20:23:04.409Z,6.00
2018-07-08T20:25:33.622Z,27.10
2018-07-08T20:28:02.803Z,8.43
2018-07-08T20:30:31.957Z,6.23
2018-07-08T20:33:01.152Z,4.80
2018-07-08T20:35:30.279Z,6.30
2018-07-08T20:37:59.458Z,5.27
2018-07-08T20:40:28.886Z,4.73
2018-07-08T20:42:58.176Z,5.10
2018-07-08T20:45:27.329Z,4.93
2018-07-08T20:47:56.564Z,6.13
2018-07-08T20:50:25.681Z,5.00
2018-07-08T20:52:54.843Z,5.10
2018-07-08T20:55:24.077Z,4.27
2018-07-08T20:57:53.262Z,4.83
2018-07-08T21:00:22.480Z,4.70
2018-07-08T21:02:51.608Z,4.90
2018-07-08T21:05:22.681Z,4.50
2018-07-08T21:07:51.932Z,4.60
2018-07-08T21:10:22.162Z,6.23
2018-07-08T21:12:51.364Z,4.67
2018-07-08T21:15:20.477Z,5.37
2018-07-08T21:17:49.640Z,5.10
2018-07-08T21:20:18.816Z,4.70
2018-07-08T21:22:47.997Z,4.70
2018-07-08T21:25:17.421Z,4.80
2018-07-08T21:27:46.752Z,5.00
2018-07-08T21:30:15.929Z,4.67
2018-07-08T21:32:45.160Z,4.60
2018-07-08T21:35:14.327Z,4.60
2018-07-08T21:37:43.429Z,5.13
2018-07-08T21:40:13.336Z,4.70
2018-07-08T21:42:42.725Z,4.60
2018-07-08T21:45:11.873Z,5.00
2018-07-08T21:47:41.104Z,4.73
2018-07-08T21:50:10.570Z,5.03
2018-07-08T21:52:39.764Z,4.77
2018-07-08T21:55:08.844Z,4.20
2018-07-08T21:57:39.589Z,4.57
2018-07-08T22:00:10.540Z,4.90
2018-07-08T22:02:40.974Z,4.70
2018-07-08T22:05:10.216Z,5.47
2018-07-08T22:07:44.701Z,4.83
2018-07-08T22:10:15.113Z,5.83
2018-07-08T22:12:44.658Z,5.30
2018-07-08T22:15:15.305Z,4.83
2018-07-08T22:17:47.562Z,5.13
2018-07-08T22:20:16.749Z,4.30
2018-07-08T22:22:45.904Z,4.67
2018-07-08T22:25:15.287Z,5.20
2018-07-08T22:27:47.649Z,6.20
2018-07-08T22:30:16.778Z,5.07
2018-07-08T22:32:45.896Z,5.20
2018-07-08T22:35:15.178Z,5.67
2018-07-08T22:37:44.405Z,4.70
2018-07-08T22:40:13.950Z,4.87
2018-07-08T22:42:42.709Z,4.77
2018-07-08T22:45:11.859Z,4.73
2018-07-08T22:47:40.995Z,5.37
2018-07-08T22:50:10.097Z,4.37
2018-07-08T22:52:39.292Z,4.80
2018-07-08T22:55:08.454Z,4.90
2018-07-08T22:57:37.872Z,4.30
2018-07-08T23:00:24.381Z,5.03
2018-07-08T23:04:09.734Z,4.90
2018-07-08T23:06:38.915Z,4.43
2018-07-08T23:09:08.103Z,4.40
2018-07-08T23:11:37.299Z,4.00
2018-07-08T23:14:06.460Z,3.97
2018-07-08T23:16:35.599Z,4.53
2018-07-08T23:19:04.750Z,3.80
2018-07-08T23:21:33.922Z,3.90
2018-07-08T23:24:03.141Z,3.67
2018-07-08T23:26:32.230Z,4.20
2018-07-08T23:29:01.480Z,4.23
2018-07-08T23:31:30.691Z,4.10
2018-07-08T23:33:59.801Z,3.30
2018-07-08T23:36:28.954Z,3.73
2018-07-08T23:38:58.085Z,4.20
2018-07-08T23:41:27.173Z,3.83
2018-07-08T23:43:56.377Z,3.30
2018-07-08T23:46:25.534Z,3.47
2018-07-08T23:48:54.609Z,3.33
2018-07-08T23:51:23.802Z,4.17
2018-07-08T23:53:53.187Z,3.53
2018-07-08T23:56:22.379Z,3.67
2018-07-08T23:58:51.661Z,4.20
